sensor_id;sensor_type;location;lat;lon;timestamp;P1;durP1;ratioP1;P2;durP2;ratioP2
7575;SDS011;3829;50.798;4.358;2023-09-12T00:01:15;15.47;;;10.07;;
7575;SDS011;3829;50.798;4.358;2023-09-12T00:03:41;16.60;;;10.97;;
7575;SDS011;3829;50.798;4.358;2023-09-12T00:06:07;15.93;;;11.33;;
7575;SDS011;3829;50.798;4.358;2023-09-12T00:08:32;17.93;;;11.73;;
7575;SDS011;3829;50.798;4.358;2023-09-12T00:11:03;20.23;;;12.43;;
7575;SDS011;3829;50.798;4.358;2023-09-12T00:13:31;22.10;;;12.00;;
7575;SDS011;3829;50.798;4.358;2023-09-12T00:15:57;21.17;;;12.77;;
7575;SDS011;3829;50.798;4.358;2023-09-12T00:18:23;17.30;;;11.53;;
7575;SDS011;3829;50.798;4.358;2023-09-12T00:20:49;18.63;;;10.60;;
7575;SDS011;3829;50.798;4.358;2023-09-12T00:23:16;17.63;;;11.30;;
7575;SDS011;3829;50.798;4.358;2023-09-12T00:25:41;17.10;;;11.70;;
7575;SDS011;3829;50.798;4.358;2023-09-12T00:28:07;19.60;;;11.87;;
7575;SDS011;3829;50.798;4.358;2023-09-12T00:30:32;20.07;;;12.43;;
7575;SDS011;3829;50.798;4.358;2023-09-12T00:32:58;19.43;;;12.63;;
7575;SDS011;3829;50.798;4.358;2023-09-12T00:35:23;17.50;;;12.43;;
7575;SDS011;3829;50.798;4.358;2023-09-12T00:37:49;18.33;;;12.67;;
7575;SDS011;3829;50.798;4.358;2023-09-12T00:40:14;17.57;;;11.60;;
7575;SDS011;3829;50.798;4.358;2023-09-12T00:42:40;19.63;;;12.23;;
7575;SDS011;3829;50.798;4.358;2023-09-12T00:45:06;20.03;;;12.67;;
7575;SDS011;3829;50.798;4.358;2023-09-12T00:47:32;20.97;;;11.00;;
7575;SDS011;3829;50.798;4.358;2023-09-12T00:49:58;20.27;;;12.33;;
7575;SDS011;3829;50.798;4.358;2023-09-12T00:52:26;15.47;;;10.10;;
7575;SDS011;3829;50.798;4.358;2023-09-12T00:54:53;19.33;;;11.50;;
7575;SDS011;3829;50.798;4.358;2023-09-12T00:57:19;20.23;;;11.70;;
7575;SDS011;3829;50.798;4.358;2023-09-12T00:59:47;16.30;;;11.47;;
7575;SDS011;3829;50.798;4.358;2023-09-12T01:02:13;17.80;;;12.07;;
7575;SDS011;3829;50.798;4.358;2023-09-12T01:04:39;17.70;;;11.97;;
7575;SDS011;3829;50.798;4.358;2023-09-12T01:07:05;18.87;;;11.93;;
7575;SDS011;3829;50.798;4.358;2023-09-12T01:09:32;21.53;;;12.70;;
7575;SDS011;3829;50.798;4.358;2023-09-12T01:11:58;18.67;;;12.67;;
7575;SDS011;3829;50.798;4.358;2023-09-12T01:14:27;15.37;;;11.73;;
7575;SDS011;3829;50.798;4.358;2023-09-12T01:16:53;16.57;;;11.40;;
7575;SDS011;3829;50.798;4.358;2023-09-12T01:19:20;18.03;;;12.70;;
7575;SDS011;3829;50.798;4.358;2023-09-12T01:21:58;20.30;;;12.67;;
7575;SDS011;3829;50.798;4.358;2023-09-12T01:27:45;19.90;;;12.03;;
7575;SDS011;3829;50.798;4.358;2023-09-12T01:30:14;20.17;;;13.03;;
7575;SDS011;3829;50.798;4.358;2023-09-12T01:32:42;21.40;;;13.07;;
7575;SDS011;3829;50.798;4.358;2023-09-12T01:35:09;26.13;;;15.13;;
7575;SDS011;3829;50.798;4.358;2023-09-12T01:37:34;23.03;;;14.30;;
7575;SDS011;3829;50.798;4.358;2023-09-12T01:40:00;21.87;;;14.40;;
7575;SDS011;3829;50.798;4.358;2023-09-12T01:42:29;22.03;;;14.80;;
7575;SDS011;3829;50.798;4.358;2023-09-12T01:45:00;22.33;;;15.17;;
7575;SDS011;3829;50.798;4.358;2023-09-12T01:47:26;23.90;;;15.50;;
7575;SDS011;3829;50.798;4.358;2023-09-12T01:49:54;26.93;;;15.57;;
7575;SDS011;3829;50.798;4.358;2023-09-12T01:52:23;22.60;;;15.20;;
7575;SDS011;3829;50.798;4.358;2023-09-12T01:54:50;27.47;;;16.20;;
7575;SDS011;3829;50.798;4.358;2023-09-12T01:57:18;22.70;;;16.37;;
7575;SDS011;3829;50.798;4.358;2023-09-12T01:59:48;24.17;;;17.43;;
7575;SDS011;3829;50.798;4.358;2023-09-12T02:02:15;28.53;;;18.30;;
7575;SDS011;3829;50.798;4.358;2023-09-12T02:04:41;28.47;;;17.50;;
7575;SDS011;3829;50.798;4.358;2023-09-12T02:07:12;29.90;;;18.80;;
7575;SDS011;3829;50.798;4.358;2023-09-12T02:09:38;31.57;;;17.50;;
7575;SDS011;3829;50.798;4.358;2023-09-12T02:12:03;30.17;;;18.37;;
7575;SDS011;3829;50.798;4.358;2023-09-12T02:14:29;34.73;;;20.23;;
7575;SDS011;3829;50.798;4.358;2023-09-12T02:16:55;33.17;;;18.87;;
7575;SDS011;3829;50.798;4.358;2023-09-12T02:19:20;33.77;;;19.63;;
7575;SDS011;3829;50.798;4.358;2023-09-12T02:21:46;31.00;;;20.30;;
7575;SDS011;3829;50.798;4.358;2023-09-12T02:24:11;34.77;;;20.20;;
7575;SDS011;3829;50.798;4.358;2023-09-12T02:26:37;34.90;;;20.50;;
7575;SDS011;3829;50.798;4.358;2023-09-12T02:29:03;33.67;;;20.60;;
7575;SDS011;3829;50.798;4.358;2023-09-12T02:31:30;35.13;;;21.30;;
7575;SDS011;3829;50.798;4.358;2023-09-12T02:33:56;41.07;;;23.97;;
7575;SDS011;3829;50.798;4.358;2023-09-12T02:36:22;36.00;;;21.70;;
7575;SDS011;3829;50.798;4.358;2023-09-12T02:38:47;42.70;;;22.70;;
7575;SDS011;3829;50.798;4.358;2023-09-12T02:41:13;48.10;;;24.87;;
7575;SDS011;3829;50.798;4.358;2023-09-12T02:43:38;53.23;;;28.57;;
7575;SDS011;3829;50.798;4.358;2023-09-12T02:46:04;41.00;;;24.93;;
7575;SDS011;3829;50.798;4.358;2023-09-12T02:48:29;53.67;;;29.47;;
7575;SDS011;3829;50.798;4.358;2023-09-12T02:50:55;47.67;;;28.57;;
7575;SDS011;3829;50.798;4.358;2023-09-12T02:53:20;47.27;;;29.10;;
7575;SDS011;3829;50.798;4.358;2023-09-12T02:55:46;50.83;;;28.33;;
7575;SDS011;3829;50.798;4.358;2023-09-12T02:58:11;61.80;;;30.10;;
7575;SDS011;3829;50.798;4.358;2023-09-12T03:00:37;47.63;;;27.90;;
7575;SDS011;3829;50.798;4.358;2023-09-12T03:03:04;48.93;;;29.30;;
7575;SDS011;3829;50.798;4.358;2023-09-12T03:05:30;47.23;;;27.93;;
7575;SDS011;3829;50.798;4.358;2023-09-12T03:07:55;49.07;;;27.87;;
7575;SDS011;3829;50.798;4.358;2023-09-12T03:10:21;48.20;;;28.37;;
7575;SDS011;3829;50.798;4.358;2023-09-12T03:12:46;51.53;;;27.13;;
7575;SDS011;3829;50.798;4.358;2023-09-12T03:15:12;44.37;;;27.30;;
7575;SDS011;3829;50.798;4.358;2023-09-12T03:17:38;45.00;;;26.63;;
7575;SDS011;3829;50.798;4.358;2023-09-12T03:20:03;47.73;;;27.37;;
7575;SDS011;3829;50.798;4.358;2023-09-12T03:22:33;45.40;;;27.23;;
7575;SDS011;3829;50.798;4.358;2023-09-12T03:25:02;42.73;;;27.30;;
7575;SDS011;3829;50.798;4.358;2023-09-12T03:27:28;39.73;;;25.57;;
7575;SDS011;3829;50.798;4.358;2023-09-12T03:29:54;46.27;;;27.57;;
7575;SDS011;3829;50.798;4.358;2023-09-12T03:32:19;47.27;;;26.97;;
7575;SDS011;3829;50.798;4.358;2023-09-12T03:34:45;41.23;;;26.97;;
7575;SDS011;3829;50.798;4.358;2023-09-12T03:37:11;49.20;;;27.10;;
7575;SDS011;3829;50.798;4.358;2023-09-12T03:39:36;44.10;;;27.87;;
7575;SDS011;3829;50.798;4.358;2023-09-12T03:42:02;44.30;;;25.70;;
7575;SDS011;3829;50.798;4.358;2023-09-12T03:44:28;41.60;;;25.77;;
7575;SDS011;3829;50.798;4.358;2023-09-12T03:46:53;47.90;;;26.73;;
7575;SDS011;3829;50.798;4.358;2023-09-12T03:49:19;43.10;;;24.47;;
7575;SDS011;3829;50.798;4.358;2023-09-12T03:51:44;37.60;;;23.10;;
7575;SDS011;3829;50.798;4.358;2023-09-12T03:54:10;42.50;;;25.00;;
7575;SDS011;3829;50.798;4.358;2023-09-12T03:56:35;40.47;;;23.47;;
7575;SDS011;3829;50.798;4.358;2023-09-12T03:59:01;40.40;;;24.30;;
7575;SDS011;3829;50.798;4.358;2023-09-12T04:01:27;46.50;;;24.23;;
7575;SDS011;3829;50.798;4.358;2023-09-12T04:03:53;44.70;;;24.57;;
7575;SDS011;3829;50.798;4.358;2023-09-12T04:06:19;37.80;;;23.47;;
7575;SDS011;3829;50.798;4.358;2023-09-12T04:08:44;40.97;;;23.43;;
7575;SDS011;3829;50.798;4.358;2023-09-12T04:11:10;38.70;;;23.20;;
7575;SDS011;3829;50.798;4.358;2023-09-12T04:13:36;37.87;;;22.87;;
7575;SDS011;3829;50.798;4.358;2023-09-12T04:16:01;36.50;;;22.57;;
7575;SDS011;3829;50.798;4.358;2023-09-12T04:18:27;35.30;;;21.70;;
7575;SDS011;3829;50.798;4.358;2023-09-12T04:20:53;34.77;;;21.20;;
7575;SDS011;3829;50.798;4.358;2023-09-12T04:23:20;35.73;;;21.93;;
7575;SDS011;3829;50.798;4.358;2023-09-12T04:25:46;37.60;;;21.83;;
7575;SDS011;3829;50.798;4.358;2023-09-12T04:28:12;35.07;;;20.73;;
7575;SDS011;3829;50.798;4.358;2023-09-12T04:30:37;31.03;;;20.13;;
7575;SDS011;3829;50.798;4.358;2023-09-12T04:33:04;33.80;;;21.50;;
7575;SDS011;3829;50.798;4.358;2023-09-12T04:35:32;35.20;;;20.87;;
7575;SDS011;3829;50.798;4.358;2023-09-12T04:37:58;33.73;;;20.10;;
7575;SDS011;3829;50.798;4.358;2023-09-12T04:40:24;33.47;;;20.37;;
7575;SDS011;3829;50.798;4.358;2023-09-12T04:42:49;37.00;;;20.60;;
7575;SDS011;3829;50.798;4.358;2023-09-12T04:45:15;32.87;;;20.10;;
7575;SDS011;3829;50.798;4.358;2023-09-12T04:47:40;36.37;;;19.57;;
7575;SDS011;3829;50.798;4.358;2023-09-12T04:50:06;33.60;;;19.20;;
7575;SDS011;3829;50.798;4.358;2023-09-12T04:52:32;28.87;;;19.07;;
7575;SDS011;3829;50.798;4.358;2023-09-12T04:54:57;36.17;;;20.67;;
7575;SDS011;3829;50.798;4.358;2023-09-12T04:57:23;32.40;;;20.07;;
7575;SDS011;3829;50.798;4.358;2023-09-12T04:59:49;32.60;;;20.33;;
7575;SDS011;3829;50.798;4.358;2023-09-12T05:02:16;33.67;;;19.37;;
7575;SDS011;3829;50.798;4.358;2023-09-12T05:04:41;33.70;;;20.27;;
7575;SDS011;3829;50.798;4.358;2023-09-12T05:07:07;32.67;;;21.10;;
7575;SDS011;3829;50.798;4.358;2023-09-12T05:09:33;32.17;;;19.90;;
7575;SDS011;3829;50.798;4.358;2023-09-12T05:11:58;37.03;;;20.70;;
7575;SDS011;3829;50.798;4.358;2023-09-12T05:14:24;36.37;;;22.83;;
7575;SDS011;3829;50.798;4.358;2023-09-12T05:16:49;38.63;;;21.50;;
7575;SDS011;3829;50.798;4.358;2023-09-12T05:19:15;36.60;;;22.20;;
7575;SDS011;3829;50.798;4.358;2023-09-12T05:21:40;37.17;;;21.10;;
7575;SDS011;3829;50.798;4.358;2023-09-12T05:24:06;33.43;;;21.13;;
7575;SDS011;3829;50.798;4.358;2023-09-12T05:26:32;33.53;;;22.27;;
7575;SDS011;3829;50.798;4.358;2023-09-12T05:28:57;41.57;;;21.57;;
7575;SDS011;3829;50.798;4.358;2023-09-12T05:31:23;39.23;;;23.80;;
7575;SDS011;3829;50.798;4.358;2023-09-12T05:33:48;37.53;;;22.93;;
7575;SDS011;3829;50.798;4.358;2023-09-12T05:36:14;42.47;;;23.17;;
7575;SDS011;3829;50.798;4.358;2023-09-12T05:38:39;45.87;;;24.53;;
7575;SDS011;3829;50.798;4.358;2023-09-12T05:41:05;41.60;;;24.23;;
7575;SDS011;3829;50.798;4.358;2023-09-12T05:43:31;39.27;;;23.50;;
7575;SDS011;3829;50.798;4.358;2023-09-12T05:45:56;43.27;;;25.27;;
7575;SDS011;3829;50.798;4.358;2023-09-12T05:48:23;39.77;;;23.63;;
7575;SDS011;3829;50.798;4.358;2023-09-12T05:50:48;41.10;;;22.93;;
7575;SDS011;3829;50.798;4.358;2023-09-12T05:53:14;44.13;;;24.90;;
7575;SDS011;3829;50.798;4.358;2023-09-12T05:55:39;48.73;;;24.33;;
7575;SDS011;3829;50.798;4.358;2023-09-12T05:58:05;40.33;;;23.50;;
7575;SDS011;3829;50.798;4.358;2023-09-12T06:00:31;40.07;;;24.50;;
7575;SDS011;3829;50.798;4.358;2023-09-12T06:02:57;38.60;;;23.90;;
7575;SDS011;3829;50.798;4.358;2023-09-12T06:05:23;36.23;;;22.83;;
7575;SDS011;3829;50.798;4.358;2023-09-12T06:07:49;39.13;;;24.23;;
7575;SDS011;3829;50.798;4.358;2023-09-12T06:10:15;34.40;;;22.60;;
7575;SDS011;3829;50.798;4.358;2023-09-12T06:12:40;44.33;;;24.03;;
7575;SDS011;3829;50.798;4.358;2023-09-12T06:15:06;41.97;;;23.33;;
7575;SDS011;3829;50.798;4.358;2023-09-12T06:17:32;43.70;;;24.43;;
7575;SDS011;3829;50.798;4.358;2023-09-12T06:19:57;44.93;;;25.03;;
7575;SDS011;3829;50.798;4.358;2023-09-12T06:22:23;43.77;;;24.40;;
7575;SDS011;3829;50.798;4.358;2023-09-12T06:24:50;35.20;;;21.80;;
7575;SDS011;3829;50.798;4.358;2023-09-12T06:27:16;34.87;;;22.13;;
7575;SDS011;3829;50.798;4.358;2023-09-12T06:29:44;38.43;;;22.20;;
7575;SDS011;3829;50.798;4.358;2023-09-12T06:32:13;34.80;;;22.33;;
7575;SDS011;3829;50.798;4.358;2023-09-12T06:34:39;34.53;;;21.47;;
7575;SDS011;3829;50.798;4.358;2023-09-12T06:37:04;37.77;;;21.07;;
7575;SDS011;3829;50.798;4.358;2023-09-12T06:39:30;36.97;;;22.53;;
7575;SDS011;3829;50.798;4.358;2023-09-12T06:41:56;39.93;;;22.70;;
7575;SDS011;3829;50.798;4.358;2023-09-12T06:44:21;33.13;;;22.40;;
7575;SDS011;3829;50.798;4.358;2023-09-12T06:46:47;39.70;;;21.63;;
7575;SDS011;3829;50.798;4.358;2023-09-12T06:49:12;34.17;;;20.80;;
7575;SDS011;3829;50.798;4.358;2023-09-12T06:51:38;30.20;;;20.27;;
7575;SDS011;3829;50.798;4.358;2023-09-12T06:54:04;39.40;;;21.43;;
7575;SDS011;3829;50.798;4.358;2023-09-12T06:56:29;33.40;;;21.13;;
7575;SDS011;3829;50.798;4.358;2023-09-12T06:58:55;35.03;;;21.63;;
7575;SDS011;3829;50.798;4.358;2023-09-12T07:01:21;33.57;;;19.80;;
7575;SDS011;3829;50.798;4.358;2023-09-12T07:03:46;32.10;;;19.33;;
7575;SDS011;3829;50.798;4.358;2023-09-12T07:06:12;33.37;;;20.07;;
7575;SDS011;3829;50.798;4.358;2023-09-12T07:08:38;33.57;;;20.57;;
7575;SDS011;3829;50.798;4.358;2023-09-12T07:11:04;35.57;;;20.10;;
7575;SDS011;3829;50.798;4.358;2023-09-12T07:13:31;28.10;;;17.70;;
7575;SDS011;3829;50.798;4.358;2023-09-12T07:15:58;28.77;;;18.30;;
7575;SDS011;3829;50.798;4.358;2023-09-12T07:18:24;26.83;;;18.13;;
7575;SDS011;3829;50.798;4.358;2023-09-12T07:20:57;32.83;;;19.77;;
7575;SDS011;3829;50.798;4.358;2023-09-12T07:23:25;33.33;;;18.10;;
7575;SDS011;3829;50.798;4.358;2023-09-12T07:25:50;27.60;;;18.33;;
7575;SDS011;3829;50.798;4.358;2023-09-12T07:28:17;27.70;;;18.60;;
7575;SDS011;3829;50.798;4.358;2023-09-12T07:30:45;32.20;;;19.37;;
7575;SDS011;3829;50.798;4.358;2023-09-12T07:33:11;26.63;;;18.07;;
7575;SDS011;3829;50.798;4.358;2023-09-12T07:35:37;28.90;;;17.97;;
7575;SDS011;3829;50.798;4.358;2023-09-12T07:38:03;30.17;;;16.47;;
7575;SDS011;3829;50.798;4.358;2023-09-12T07:40:29;28.67;;;18.47;;
7575;SDS011;3829;50.798;4.358;2023-09-12T07:42:54;26.27;;;17.33;;
7575;SDS011;3829;50.798;4.358;2023-09-12T07:45:20;27.03;;;17.63;;
7575;SDS011;3829;50.798;4.358;2023-09-12T07:47:46;25.37;;;16.07;;
7575;SDS011;3829;50.798;4.358;2023-09-12T07:50:12;28.17;;;16.53;;
7575;SDS011;3829;50.798;4.358;2023-09-12T07:52:37;26.47;;;17.30;;
7575;SDS011;3829;50.798;4.358;2023-09-12T07:55:03;25.70;;;16.80;;
7575;SDS011;3829;50.798;4.358;2023-09-12T07:57:29;23.30;;;16.60;;
7575;SDS011;3829;50.798;4.358;2023-09-12T07:59:55;24.97;;;14.80;;
7575;SDS011;3829;50.798;4.358;2023-09-12T08:02:21;19.83;;;15.10;;
7575;SDS011;3829;50.798;4.358;2023-09-12T08:04:48;22.80;;;13.80;;
7575;SDS011;3829;50.798;4.358;2023-09-12T08:07:15;25.97;;;16.73;;
7575;SDS011;3829;50.798;4.358;2023-09-12T08:09:58;22.33;;;15.57;;
7575;SDS011;3829;50.798;4.358;2023-09-12T08:12:24;22.97;;;15.20;;
7575;SDS011;3829;50.798;4.358;2023-09-12T08:14:52;24.80;;;15.53;;
7575;SDS011;3829;50.798;4.358;2023-09-12T08:17:18;23.00;;;14.77;;
7575;SDS011;3829;50.798;4.358;2023-09-12T08:19:44;21.30;;;14.90;;
7575;SDS011;3829;50.798;4.358;2023-09-12T08:22:10;24.00;;;16.07;;
7575;SDS011;3829;50.798;4.358;2023-09-12T08:24:37;22.47;;;15.80;;
7575;SDS011;3829;50.798;4.358;2023-09-12T08:27:04;28.00;;;18.43;;
7575;SDS011;3829;50.798;4.358;2023-09-12T08:29:31;30.20;;;17.83;;
7575;SDS011;3829;50.798;4.358;2023-09-12T08:31:58;29.47;;;18.23;;
7575;SDS011;3829;50.798;4.358;2023-09-12T08:34:24;26.10;;;17.30;;
7575;SDS011;3829;50.798;4.358;2023-09-12T08:36:50;29.77;;;18.23;;
7575;SDS011;3829;50.798;4.358;2023-09-12T08:39:19;28.37;;;17.83;;
7575;SDS011;3829;50.798;4.358;2023-09-12T08:41:50;24.10;;;16.10;;
7575;SDS011;3829;50.798;4.358;2023-09-12T08:44:16;28.07;;;17.23;;
7575;SDS011;3829;50.798;4.358;2023-09-12T08:46:42;25.40;;;15.40;;
7575;SDS011;3829;50.798;4.358;2023-09-12T08:49:09;28.80;;;17.30;;
7575;SDS011;3829;50.798;4.358;2023-09-12T08:51:36;38.33;;;19.20;;
7575;SDS011;3829;50.798;4.358;2023-09-12T08:54:02;30.57;;;17.63;;
7575;SDS011;3829;50.798;4.358;2023-09-12T08:56:29;32.57;;;18.40;;
7575;SDS011;3829;50.798;4.358;2023-09-12T08:58:55;33.47;;;17.83;;
7575;SDS011;3829;50.798;4.358;2023-09-12T09:01:22;28.00;;;17.07;;
7575;SDS011;3829;50.798;4.358;2023-09-12T09:03:52;35.70;;;18.00;;
7575;SDS011;3829;50.798;4.358;2023-09-12T09:06:18;33.13;;;17.37;;
7575;SDS011;3829;50.798;4.358;2023-09-12T09:08:46;24.73;;;16.93;;
7575;SDS011;3829;50.798;4.358;2023-09-12T09:11:14;28.93;;;16.87;;
7575;SDS011;3829;50.798;4.358;2023-09-12T09:13:39;23.90;;;16.00;;
7575;SDS011;3829;50.798;4.358;2023-09-12T09:18:51;27.17;;;15.43;;
7575;SDS011;3829;50.798;4.358;2023-09-12T09:21:18;27.73;;;17.60;;
7575;SDS011;3829;50.798;4.358;2023-09-12T09:23:45;23.53;;;14.50;;
7575;SDS011;3829;50.798;4.358;2023-09-12T09:26:11;22.23;;;13.40;;
7575;SDS011;3829;50.798;4.358;2023-09-12T09:28:38;31.03;;;17.90;;
7575;SDS011;3829;50.798;4.358;2023-09-12T09:31:09;22.93;;;14.27;;
7575;SDS011;3829;50.798;4.358;2023-09-12T09:33:35;20.33;;;12.70;;
7575;SDS011;3829;50.798;4.358;2023-09-12T09:36:02;21.70;;;13.13;;
7575;SDS011;3829;50.798;4.358;2023-09-12T09:38:29;22.67;;;13.33;;
7575;SDS011;3829;50.798;4.358;2023-09-12T09:40:55;19.37;;;11.13;;
7575;SDS011;3829;50.798;4.358;2023-09-12T09:43:21;24.53;;;15.20;;
7575;SDS011;3829;50.798;4.358;2023-09-12T09:45:47;24.30;;;14.87;;
7575;SDS011;3829;50.798;4.358;2023-09-12T09:48:20;26.27;;;12.67;;
7575;SDS011;3829;50.798;4.358;2023-09-12T09:50:47;16.33;;;10.93;;
7575;SDS011;3829;50.798;4.358;2023-09-12T09:53:13;18.47;;;12.83;;
7575;SDS011;3829;50.798;4.358;2023-09-12T09:55:39;17.40;;;12.17;;
7575;SDS011;3829;50.798;4.358;2023-09-12T09:58:06;24.07;;;13.20;;
7575;SDS011;3829;50.798;4.358;2023-09-12T10:00:33;21.93;;;12.63;;
7575;SDS011;3829;50.798;4.358;2023-09-12T10:03:03;24.73;;;12.70;;
7575;SDS011;3829;50.798;4.358;2023-09-12T10:05:32;18.83;;;12.93;;
7575;SDS011;3829;50.798;4.358;2023-09-12T10:07:58;19.17;;;11.70;;
7575;SDS011;3829;50.798;4.358;2023-09-12T10:10:27;22.93;;;13.47;;
7575;SDS011;3829;50.798;4.358;2023-09-12T10:12:56;25.20;;;12.20;;
7575;SDS011;3829;50.798;4.358;2023-09-12T10:15:22;18.07;;;9.73;;
7575;SDS011;3829;50.798;4.358;2023-09-12T10:17:56;23.57;;;12.50;;
7575;SDS011;3829;50.798;4.358;2023-09-12T10:20:25;27.53;;;12.07;;
7575;SDS011;3829;50.798;4.358;2023-09-12T10:25:36;19.67;;;11.07;;
7575;SDS011;3829;50.798;4.358;2023-09-12T10:28:04;17.70;;;10.43;;
7575;SDS011;3829;50.798;4.358;2023-09-12T10:30:31;18.03;;;10.27;;
7575;SDS011;3829;50.798;4.358;2023-09-12T10:32:58;17.30;;;10.30;;
7575;SDS011;3829;50.798;4.358;2023-09-12T10:35:28;17.03;;;9.37;;
7575;SDS011;3829;50.798;4.358;2023-09-12T10:37:55;15.67;;;9.27;;
7575;SDS011;3829;50.798;4.358;2023-09-12T10:40:26;14.53;;;8.60;;
7575;SDS011;3829;50.798;4.358;2023-09-12T10:42:54;16.00;;;8.53;;
7575;SDS011;3829;50.798;4.358;2023-09-12T10:45:21;11.77;;;8.73;;
7575;SDS011;3829;50.798;4.358;2023-09-12T10:47:47;17.00;;;9.17;;
7575;SDS011;3829;50.798;4.358;2023-09-12T10:50:13;12.60;;;8.77;;
7575;SDS011;3829;50.798;4.358;2023-09-12T10:52:39;13.57;;;10.10;;
7575;SDS011;3829;50.798;4.358;2023-09-12T10:55:06;15.43;;;9.40;;
7575;SDS011;3829;50.798;4.358;2023-09-12T10:57:32;15.83;;;9.57;;
7575;SDS011;3829;50.798;4.358;2023-09-12T11:00:10;15.27;;;9.47;;
7575;SDS011;3829;50.798;4.358;2023-09-12T11:02:37;14.27;;;8.53;;
7575;SDS011;3829;50.798;4.358;2023-09-12T11:05:04;9.63;;;6.80;;
7575;SDS011;3829;50.798;4.358;2023-09-12T11:10:18;11.40;;;6.90;;
7575;SDS011;3829;50.798;4.358;2023-09-12T11:12:44;9.00;;;6.77;;
7575;SDS011;3829;50.798;4.358;2023-09-12T11:15:12;9.30;;;6.63;;
7575;SDS011;3829;50.798;4.358;2023-09-12T11:17:41;8.40;;;6.17;;
7575;SDS011;3829;50.798;4.358;2023-09-12T11:20:08;9.63;;;7.30;;
7575;SDS011;3829;50.798;4.358;2023-09-12T11:22:36;10.60;;;6.73;;
7575;SDS011;3829;50.798;4.358;2023-09-12T11:25:04;9.73;;;5.83;;
7575;SDS011;3829;50.798;4.358;2023-09-12T11:30:32;9.13;;;6.50;;
7575;SDS011;3829;50.798;4.358;2023-09-12T11:32:59;10.63;;;6.50;;
7575;SDS011;3829;50.798;4.358;2023-09-12T11:35:29;9.07;;;6.30;;
7575;SDS011;3829;50.798;4.358;2023-09-12T11:38:00;11.13;;;6.13;;
7575;SDS011;3829;50.798;4.358;2023-09-12T11:40:43;7.13;;;5.67;;
7575;SDS011;3829;50.798;4.358;2023-09-12T11:43:19;9.30;;;5.60;;
7575;SDS011;3829;50.798;4.358;2023-09-12T11:45:47;8.23;;;5.50;;
7575;SDS011;3829;50.798;4.358;2023-09-12T11:48:12;10.97;;;6.57;;
7575;SDS011;3829;50.798;4.358;2023-09-12T11:50:38;7.93;;;5.47;;
7575;SDS011;3829;50.798;4.358;2023-09-12T11:53:09;11.10;;;6.90;;
7575;SDS011;3829;50.798;4.358;2023-09-12T11:58:12;11.43;;;5.73;;
7575;SDS011;3829;50.798;4.358;2023-09-12T12:00:45;7.87;;;4.77;;
7575;SDS011;3829;50.798;4.358;2023-09-12T12:03:13;6.40;;;4.97;;
7575;SDS011;3829;50.798;4.358;2023-09-12T12:05:39;8.70;;;5.10;;
7575;SDS011;3829;50.798;4.358;2023-09-12T12:08:06;7.57;;;5.10;;
7575;SDS011;3829;50.798;4.358;2023-09-12T12:10:33;10.40;;;5.17;;
7575;SDS011;3829;50.798;4.358;2023-09-12T12:12:59;12.07;;;4.80;;
7575;SDS011;3829;50.798;4.358;2023-09-12T12:15:27;6.57;;;4.27;;
7575;SDS011;3829;50.798;4.358;2023-09-12T12:17:54;7.27;;;5.37;;
7575;SDS011;3829;50.798;4.358;2023-09-12T12:20:20;8.50;;;5.80;;
7575;SDS011;3829;50.798;4.358;2023-09-12T12:22:46;7.37;;;5.10;;
7575;SDS011;3829;50.798;4.358;2023-09-12T12:25:13;6.90;;;5.13;;
7575;SDS011;3829;50.798;4.358;2023-09-12T12:27:39;8.67;;;4.60;;
7575;SDS011;3829;50.798;4.358;2023-09-12T12:30:07;7.60;;;4.80;;
7575;SDS011;3829;50.798;4.358;2023-09-12T12:32:39;7.77;;;4.93;;
7575;SDS011;3829;50.798;4.358;2023-09-12T12:35:07;9.87;;;5.13;;
7575;SDS011;3829;50.798;4.358;2023-09-12T12:37:33;7.27;;;5.00;;
7575;SDS011;3829;50.798;4.358;2023-09-12T12:40:00;6.73;;;4.60;;
7575;SDS011;3829;50.798;4.358;2023-09-12T12:42:32;8.77;;;4.93;;
7575;SDS011;3829;50.798;4.358;2023-09-12T12:44:59;9.93;;;5.43;;
7575;SDS011;3829;50.798;4.358;2023-09-12T12:47:24;8.13;;;4.23;;
7575;SDS011;3829;50.798;4.358;2023-09-12T12:49:51;8.90;;;4.27;;
7575;SDS011;3829;50.798;4.358;2023-09-12T12:52:21;6.37;;;4.37;;
7575;SDS011;3829;50.798;4.358;2023-09-12T12:54:48;7.57;;;4.27;;
7575;SDS011;3829;50.798;4.358;2023-09-12T12:57:18;9.37;;;4.50;;
7575;SDS011;3829;50.798;4.358;2023-09-12T12:59:45;6.07;;;3.90;;
7575;SDS011;3829;50.798;4.358;2023-09-12T13:02:12;6.97;;;4.00;;
7575;SDS011;3829;50.798;4.358;2023-09-12T13:04:38;6.57;;;3.93;;
7575;SDS011;3829;50.798;4.358;2023-09-12T13:07:04;5.43;;;3.87;;
7575;SDS011;3829;50.798;4.358;2023-09-12T13:09:30;6.07;;;4.50;;
7575;SDS011;3829;50.798;4.358;2023-09-12T13:11:56;4.83;;;3.97;;
7575;SDS011;3829;50.798;4.358;2023-09-12T13:14:21;7.07;;;4.30;;
7575;SDS011;3829;50.798;4.358;2023-09-12T13:16:54;9.13;;;4.53;;
7575;SDS011;3829;50.798;4.358;2023-09-12T13:19:20;9.70;;;4.93;;
7575;SDS011;3829;50.798;4.358;2023-09-12T13:21:45;6.77;;;4.60;;
7575;SDS011;3829;50.798;4.358;2023-09-12T13:24:11;6.47;;;4.43;;
7575;SDS011;3829;50.798;4.358;2023-09-12T13:26:38;9.13;;;4.67;;
7575;SDS011;3829;50.798;4.358;2023-09-12T13:29:05;9.47;;;5.40;;
7575;SDS011;3829;50.798;4.358;2023-09-12T13:31:30;11.97;;;5.70;;
7575;SDS011;3829;50.798;4.358;2023-09-12T13:33:56;8.63;;;5.77;;
7575;SDS011;3829;50.798;4.358;2023-09-12T13:36:22;6.83;;;5.37;;
7575;SDS011;3829;50.798;4.358;2023-09-12T13:38:49;9.13;;;6.00;;
7575;SDS011;3829;50.798;4.358;2023-09-12T13:41:16;7.93;;;4.90;;
7575;SDS011;3829;50.798;4.358;2023-09-12T13:43:43;10.37;;;5.77;;
7575;SDS011;3829;50.798;4.358;2023-09-12T13:46:10;8.30;;;6.10;;
7575;SDS011;3829;50.798;4.358;2023-09-12T13:48:36;8.07;;;5.50;;
7575;SDS011;3829;50.798;4.358;2023-09-12T13:51:02;9.30;;;6.20;;
7575;SDS011;3829;50.798;4.358;2023-09-12T13:53:28;9.83;;;5.67;;
7575;SDS011;3829;50.798;4.358;2023-09-12T13:55:53;11.17;;;6.63;;
7575;SDS011;3829;50.798;4.358;2023-09-12T13:58:21;11.57;;;7.07;;
7575;SDS011;3829;50.798;4.358;2023-09-12T14:00:47;13.57;;;7.87;;
7575;SDS011;3829;50.798;4.358;2023-09-12T14:03:13;8.47;;;6.43;;
7575;SDS011;3829;50.798;4.358;2023-09-12T14:05:39;10.97;;;7.77;;
7575;SDS011;3829;50.798;4.358;2023-09-12T14:08:05;8.70;;;6.80;;
7575;SDS011;3829;50.798;4.358;2023-09-12T14:10:31;8.80;;;7.03;;
7575;SDS011;3829;50.798;4.358;2023-09-12T14:12:56;10.07;;;7.33;;
7575;SDS011;3829;50.798;4.358;2023-09-12T14:15:22;14.30;;;7.80;;
7575;SDS011;3829;50.798;4.358;2023-09-12T14:17:48;13.50;;;7.47;;
7575;SDS011;3829;50.798;4.358;2023-09-12T14:20:13;11.70;;;7.53;;
7575;SDS011;3829;50.798;4.358;2023-09-12T14:22:40;11.40;;;8.23;;
7575;SDS011;3829;50.798;4.358;2023-09-12T14:25:07;14.07;;;7.83;;
7575;SDS011;3829;50.798;4.358;2023-09-12T14:27:33;10.20;;;8.13;;
7575;SDS011;3829;50.798;4.358;2023-09-12T14:29:59;13.37;;;8.47;;
7575;SDS011;3829;50.798;4.358;2023-09-12T14:32:25;9.83;;;8.20;;
7575;SDS011;3829;50.798;4.358;2023-09-12T14:34:51;11.83;;;7.87;;
7575;SDS011;3829;50.798;4.358;2023-09-12T14:37:16;12.57;;;7.93;;
7575;SDS011;3829;50.798;4.358;2023-09-12T14:39:42;11.43;;;8.07;;
7575;SDS011;3829;50.798;4.358;2023-09-12T14:42:07;9.23;;;7.57;;
7575;SDS011;3829;50.798;4.358;2023-09-12T14:44:34;20.70;;;9.03;;
7575;SDS011;3829;50.798;4.358;2023-09-12T14:47:00;10.23;;;7.97;;
7575;SDS011;3829;50.798;4.358;2023-09-12T14:49:25;10.40;;;7.53;;
7575;SDS011;3829;50.798;4.358;2023-09-12T14:51:51;12.77;;;8.07;;
7575;SDS011;3829;50.798;4.358;2023-09-12T14:54:17;10.30;;;7.80;;
7575;SDS011;3829;50.798;4.358;2023-09-12T14:56:42;10.77;;;7.67;;
7575;SDS011;3829;50.798;4.358;2023-09-12T14:59:08;14.10;;;7.05;;
7575;SDS011;3829;50.798;4.358;2023-09-12T15:01:34;12.40;;;7.07;;
7575;SDS011;3829;50.798;4.358;2023-09-12T15:04:00;10.47;;;6.73;;
7575;SDS011;3829;50.798;4.358;2023-09-12T15:06:26;11.30;;;7.90;;